createdAt,value
2018-12-04T00:00:28.013Z,11.54
2018-12-04T00:02:55.170Z,11.56
2018-12-04T00:05:22.481Z,11.53
2018-12-04T00:07:49.569Z,11.58
2018-12-04T00:10:16.645Z,11.55
2018-12-04T00:12:43.679Z,11.55
2018-12-04T00:15:10.775Z,11.59
2018-12-04T00:17:37.834Z,11.49
2018-12-04T00:20:05.320Z,11.52
2018-12-04T00:22:32.430Z,11.51
2018-12-04T00:24:59.520Z,11.54
2018-12-04T00:27:26.610Z,11.53
2018-12-04T00:29:53.740Z,11.54
2018-12-04T00:32:20.867Z,11.55
2018-12-04T00:34:47.943Z,11.57
2018-12-04T00:37:15.086Z,11.57
2018-12-04T00:39:42.193Z,11.62
2018-12-04T00:42:09.283Z,11.56
2018-12-04T00:44:37.036Z,11.55
2018-12-04T00:47:04.190Z,11.59
2018-12-04T00:49:31.403Z,11.58
2018-12-04T00:51:58.499Z,11.54
2018-12-04T00:54:25.574Z,11.52
2018-12-04T00:56:52.763Z,11.51
2018-12-04T00:59:19.878Z,11.53
2018-12-04T01:01:46.984Z,11.49
2018-12-04T01:04:14.061Z,11.53
2018-12-04T01:06:41.144Z,11.52
2018-12-04T01:09:09.907Z,11.55
2018-12-04T01:11:37.012Z,11.50
2018-12-04T01:14:04.139Z,11.53
2018-12-04T01:16:31.302Z,11.52
2018-12-04T01:18:58.368Z,11.57
2018-12-04T01:21:25.788Z,11.61
2018-12-04T01:23:53.090Z,11.64
2018-12-04T01:26:20.229Z,11.68
2018-12-04T01:28:47.309Z,11.65
2018-12-04T01:31:15.182Z,11.60
2018-12-04T01:33:42.343Z,11.56
2018-12-04T01:36:09.439Z,11.51
2018-12-04T01:38:36.700Z,11.57
2018-12-04T01:41:03.742Z,11.58
2018-12-04T01:43:30.818Z,11.70
2018-12-04T01:45:57.913Z,11.77
2018-12-04T01:48:25.007Z,11.79
2018-12-04T01:50:52.259Z,11.81
2018-12-04T01:53:19.480Z,11.76
2018-12-04T01:55:46.584Z,11.72
2018-12-04T01:58:13.775Z,11.76
2018-12-04T02:00:40.864Z,11.78
2018-12-04T02:03:07.917Z,11.77
2018-12-04T02:05:35.037Z,11.81
2018-12-04T02:08:02.115Z,11.82
2018-12-04T02:10:29.159Z,11.81
2018-12-04T02:12:56.248Z,11.86
2018-12-04T02:15:23.296Z,11.87
2018-12-04T02:17:50.382Z,11.82
2018-12-04T02:20:17.612Z,11.80
2018-12-04T02:22:44.705Z,11.81
2018-12-04T02:25:11.758Z,11.77
2018-12-04T02:27:38.798Z,11.77
2018-12-04T02:30:05.904Z,11.72
2018-12-04T02:32:32.969Z,11.74
2018-12-04T02:35:00.090Z,11.73
2018-12-04T02:37:27.135Z,11.73
2018-12-04T02:39:54.269Z,11.62
2018-12-04T02:42:25.753Z,11.65
2018-12-04T02:44:53.370Z,11.63
2018-12-04T02:47:21.451Z,11.65
2018-12-04T02:49:48.537Z,11.54
2018-12-04T02:52:15.687Z,11.55
2018-12-04T02:54:42.792Z,11.58
2018-12-04T02:57:09.912Z,11.57
2018-12-04T02:59:36.972Z,11.51
2018-12-04T03:02:04.288Z,11.49
2018-12-04T03:04:31.351Z,11.47
2018-12-04T03:06:58.501Z,11.42
2018-12-04T03:09:25.600Z,11.51
2018-12-04T03:11:52.895Z,11.49
2018-12-04T03:14:20.052Z,11.53
2018-12-04T03:16:47.138Z,11.54
2018-12-04T03:19:14.224Z,11.51
2018-12-04T03:21:41.280Z,11.45
2018-12-04T03:24:10.061Z,11.50
2018-12-04T03:26:37.168Z,11.47
2018-12-04T03:29:04.265Z,11.48
2018-12-04T03:31:31.343Z,11.49
2018-12-04T03:33:58.540Z,11.50
2018-12-04T03:36:25.761Z,11.48
2018-12-04T03:38:52.847Z,11.50
2018-12-04T03:41:19.921Z,11.44
2018-12-04T03:43:47.116Z,11.42
2018-12-04T03:46:14.197Z,11.43
2018-12-04T03:48:41.375Z,11.42
2018-12-04T03:51:08.568Z,11.33
2018-12-04T03:53:35.714Z,11.35
2018-12-04T03:56:02.800Z,11.33
2018-12-04T03:58:29.928Z,11.28
2018-12-04T04:00:57.032Z,11.26
2018-12-04T04:03:24.137Z,11.24
2018-12-04T04:05:51.225Z,11.27
2018-12-04T04:08:18.340Z,11.33
2018-12-04T04:10:45.398Z,11.34
2018-12-04T04:13:12.775Z,11.31
2018-12-04T04:15:39.989Z,11.28
2018-12-04T04:18:07.093Z,11.25
2018-12-04T04:20:34.139Z,11.17
2018-12-04T04:23:02.235Z,11.03
2018-12-04T04:25:29.345Z,11.08
2018-12-04T04:27:56.400Z,11.02
2018-12-04T04:30:23.612Z,10.95
2018-12-04T04:32:50.778Z,10.90
2018-12-04T04:35:17.848Z,10.83
2018-12-04T04:37:44.946Z,10.82
2018-12-04T04:40:12.277Z,10.87
2018-12-04T04:42:39.601Z,10.89
2018-12-04T04:45:07.102Z,10.86
2018-12-04T04:47:34.311Z,10.87
2018-12-04T04:50:01.614Z,10.37
2018-12-04T04:52:28.716Z,10.93
2018-12-04T04:54:55.875Z,10.93
2018-12-04T04:57:22.949Z,10.96
2018-12-04T04:59:50.194Z,11.01
2018-12-04T05:02:17.284Z,10.97
2018-12-04T05:04:44.373Z,10.94
2018-12-04T05:07:11.540Z,11.00
2018-12-04T05:09:38.645Z,10.98
2018-12-04T05:12:05.872Z,11.03
2018-12-04T05:14:33.069Z,10.90
2018-12-04T05:17:00.163Z,10.86
2018-12-04T05:19:27.268Z,10.87
2018-12-04T05:21:54.375Z,10.86
2018-12-04T05:24:22.013Z,10.85
2018-12-04T05:26:49.123Z,10.87
2018-12-04T05:29:16.215Z,10.85
2018-12-04T05:31:43.352Z,10.88
2018-12-04T05:34:10.457Z,10.82
2018-12-04T05:36:37.513Z,10.78
2018-12-04T05:39:06.379Z,10.75
2018-12-04T05:41:33.675Z,10.78
2018-12-04T05:44:00.741Z,10.73
2018-12-04T05:46:27.910Z,10.71
2018-12-04T05:48:55.012Z,10.73
2018-12-04T05:51:22.344Z,10.77
2018-12-04T05:53:49.433Z,10.72
2018-12-04T05:56:16.582Z,10.72
2018-12-04T05:58:43.744Z,10.59
2018-12-04T06:01:10.826Z,10.62
2018-12-04T06:03:37.895Z,10.64
2018-12-04T06:06:04.992Z,10.51
2018-12-04T06:08:32.220Z,10.44
2018-12-04T06:10:59.395Z,10.34
2018-12-04T06:13:26.607Z,10.27
2018-12-04T06:15:53.709Z,10.24
2018-12-04T06:18:20.923Z,10.21
2018-12-04T06:20:48.549Z,10.25
2018-12-04T06:23:15.660Z,10.27
2018-12-04T06:25:43.378Z,10.24
2018-12-04T06:28:10.441Z,10.23
2018-12-04T06:30:37.554Z,10.27
2018-12-04T06:33:04.674Z,10.28
2018-12-04T06:35:32.244Z,10.29
2018-12-04T06:37:59.438Z,10.28
2018-12-04T06:40:26.577Z,10.27
2018-12-04T06:42:53.848Z,10.27
2018-12-04T06:45:21.352Z,10.30
2018-12-04T06:47:48.551Z,10.29
2018-12-04T06:50:16.120Z,10.28
2018-12-04T06:52:44.597Z,10.27
2018-12-04T06:55:11.756Z,10.19
2018-12-04T06:57:38.853Z,10.19
2018-12-04T07:00:06.657Z,10.06
2018-12-04T07:02:33.923Z,10.33
2018-12-04T07:05:00.978Z,10.20
2018-12-04T07:07:28.519Z,10.12
2018-12-04T07:09:55.565Z,9.92
2018-12-04T07:12:22.650Z,9.92
2018-12-04T07:14:49.767Z,9.91
2018-12-04T07:17:16.995Z,9.89
2018-12-04T07:19:44.105Z,9.87
2018-12-04T07:22:12.336Z,9.56
2018-12-04T07:24:39.495Z,9.88
2018-12-04T07:27:06.705Z,9.85
2018-12-04T07:29:33.878Z,9.86
2018-12-04T07:32:00.954Z,9.76
2018-12-04T07:34:28.184Z,9.70
2018-12-04T07:36:57.236Z,9.67
2018-12-04T07:39:25.008Z,9.73
2018-12-04T07:41:52.201Z,9.67
2018-12-04T07:44:19.297Z,9.68
2018-12-04T07:46:46.389Z,9.67
2018-12-04T07:49:13.461Z,9.66
2018-12-04T07:51:40.577Z,9.67
2018-12-04T07:54:08.484Z,9.64
2018-12-04T07:56:35.704Z,9.66
2018-12-04T07:59:02.801Z,9.68
2018-12-04T08:01:29.870Z,9.67
2018-12-04T08:03:57.023Z,9.65
2018-12-04T08:06:24.141Z,9.67
2018-12-04T08:08:51.323Z,9.64
2018-12-04T08:11:18.440Z,9.60
2018-12-04T08:13:45.536Z,9.54
2018-12-04T08:16:12.588Z,9.51
2018-12-04T08:18:39.771Z,8.86
2018-12-04T08:21:06.832Z,9.59
2018-12-04T08:23:34.331Z,9.57
2018-12-04T08:26:01.522Z,9.59
2018-12-04T08:28:28.624Z,9.65
2018-12-04T08:30:55.726Z,9.71
2018-12-04T08:33:22.875Z,9.70
2018-12-04T08:35:51.715Z,9.70
2018-12-04T08:38:19.003Z,9.73
2018-12-04T08:40:46.086Z,9.78
2018-12-04T08:43:13.211Z,9.76
2018-12-04T08:45:43.433Z,9.83
2018-12-04T08:48:11.570Z,9.82
2018-12-04T08:50:38.717Z,9.79
2018-12-04T08:53:05.911Z,9.82
2018-12-04T08:55:33.675Z,9.75
2018-12-04T08:58:04.120Z,9.83
2018-12-04T09:00:31.257Z,9.83
2018-12-04T09:02:58.423Z,9.87
2018-12-04T09:05:27.767Z,9.90
2018-12-04T09:07:59.895Z,9.98
2018-12-04T09:10:27.027Z,9.97
2018-12-04T09:12:54.092Z,9.98
2018-12-04T09:15:23.620Z,9.97
2018-12-04T09:17:51.721Z,10.06
2018-12-04T09:20:18.816Z,10.06
2018-12-04T09:22:46.067Z,10.12
2018-12-04T09:25:13.798Z,10.14
2018-12-04T09:27:40.952Z,10.21
2018-12-04T09:30:09.891Z,10.33
2018-12-04T09:32:37.194Z,10.32
2018-12-04T09:35:05.998Z,10.35
2018-12-04T09:37:33.092Z,10.37
2018-12-04T09:40:00.205Z,10.40
2018-12-04T09:42:27.348Z,10.43
2018-12-04T09:44:57.231Z,10.34
2018-12-04T09:47:28.054Z,10.29
2018-12-04T09:49:55.709Z,10.31
2018-12-04T09:52:22.963Z,10.35
2018-12-04T09:54:51.156Z,10.41
2018-12-04T09:57:18.678Z,10.31
2018-12-04T09:59:45.967Z,10.34
2018-12-04T10:02:13.082Z,10.30
2018-12-04T10:04:40.976Z,10.32
2018-12-04T10:07:08.139Z,10.38
2018-12-04T10:09:35.269Z,10.41
2018-12-04T10:12:02.699Z,10.46
2018-12-04T10:14:29.972Z,10.52
2018-12-04T10:16:57.110Z,8.64
2018-12-04T10:19:24.981Z,10.62
2018-12-04T10:21:52.125Z,10.66
2018-12-04T10:24:19.214Z,10.67
2018-12-04T10:26:52.632Z,10.71
2018-12-04T10:29:22.164Z,10.79
2018-12-04T10:31:55.798Z,10.87
2018-12-04T10:34:18.625Z,10.85
2018-12-04T10:36:45.849Z,10.88
2018-12-04T10:39:13.593Z,10.82
2018-12-04T10:41:41.255Z,10.99
2018-12-04T10:44:08.452Z,10.93
2018-12-04T10:46:36.523Z,10.81
2018-12-04T10:49:03.640Z,10.90
2018-12-04T10:51:30.841Z,10.94
2018-12-04T10:53:58.171Z,10.70
2018-12-04T10:56:25.333Z,10.78
2018-12-04T10:58:52.529Z,10.81
2018-12-04T11:01:21.769Z,10.81
2018-12-04T11:03:49.174Z,10.83
2018-12-04T11:06:16.547Z,10.88
2018-12-04T11:08:43.811Z,10.90
2018-12-04T11:11:10.908Z,10.85
2018-12-04T11:13:38.132Z,10.88
2018-12-04T11:16:05.256Z,10.89
2018-12-04T11:18:32.436Z,10.80
2018-12-04T11:20:59.570Z,10.87
2018-12-04T11:23:26.860Z,10.90
2018-12-04T11:25:54.869Z,11.01
2018-12-04T11:28:21.970Z,11.11
2018-12-04T11:30:49.225Z,11.10
2018-12-04T11:33:17.597Z,11.15
2018-12-04T11:35:44.801Z,11.00
2018-12-04T11:38:11.931Z,10.95
2018-12-04T11:40:39.005Z,10.99
2018-12-04T11:43:06.708Z,10.96
2018-12-04T11:45:33.976Z,10.93
2018-12-04T11:48:01.183Z,10.98
2018-12-04T11:50:28.375Z,10.73
2018-12-04T11:52:55.460Z,10.69
2018-12-04T11:55:22.504Z,9.45
2018-12-04T11:57:49.894Z,10.64
2018-12-04T12:00:23.677Z,10.51
2018-12-04T12:02:50.950Z,10.49
2018-12-04T12:05:18.197Z,10.36
2018-12-04T12:07:45.365Z,10.41
2018-12-04T12:10:13.400Z,9.92
2018-12-04T12:12:40.541Z,10.55
2018-12-04T12:15:07.712Z,10.55
2018-12-04T12:17:35.556Z,10.32
2018-12-04T12:20:03.084Z,10.32
2018-12-04T12:22:30.176Z,10.42
2018-12-04T12:24:57.291Z,10.47
2018-12-04T12:27:24.492Z,10.66
2018-12-04T12:29:52.316Z,10.70
2018-12-04T12:32:19.472Z,10.68
2018-12-04T12:34:46.619Z,10.56
2018-12-04T12:37:13.916Z,10.42
2018-12-04T12:39:41.260Z,10.38
2018-12-04T12:42:08.569Z,10.11
2018-12-04T12:44:35.753Z,9.92
2018-12-04T12:47:03.925Z,9.82
2018-12-04T12:49:31.163Z,9.82
2018-12-04T12:51:58.404Z,9.81
2018-12-04T12:54:25.637Z,9.84
2018-12-04T12:56:53.873Z,9.84
2018-12-04T12:59:21.089Z,10.01
2018-12-04T13:01:48.307Z,10.07
2018-12-04T13:04:15.531Z,10.14
2018-12-04T13:06:42.652Z,10.22
2018-12-04T13:09:09.764Z,10.32
2018-12-04T13:11:36.997Z,10.35
2018-12-04T13:14:04.379Z,10.36
2018-12-04T13:16:32.309Z,10.29
2018-12-04T13:18:59.622Z,10.37
2018-12-04T13:21:26.731Z,10.36
2018-12-04T13:23:54.173Z,10.35
2018-12-04T13:26:21.695Z,10.35
2018-12-04T13:28:48.801Z,10.41
2018-12-04T13:31:15.943Z,10.48
2018-12-04T13:33:43.147Z,10.51
2018-12-04T13:36:12.131Z,10.49
2018-12-04T13:38:39.582Z,10.47
2018-12-04T13:41:07.223Z,10.42
2018-12-04T13:43:34.513Z,10.42
2018-12-04T13:46:01.625Z,10.42
2018-12-04T13:48:28.888Z,10.41
2018-12-04T13:50:56.086Z,10.38
2018-12-04T13:53:23.272Z,10.48
2018-12-04T13:55:50.454Z,10.51
2018-12-04T13:58:17.619Z,10.50
2018-12-04T14:00:44.739Z,10.54
2018-12-04T14:03:12.057Z,10.54
2018-12-04T14:05:39.393Z,10.51
2018-12-04T14:08:06.932Z,10.46
2018-12-04T14:10:34.170Z,10.49
2018-12-04T14:13:01.302Z,10.47
2018-12-04T14:15:28.718Z,10.49
2018-12-04T14:17:56.617Z,10.45
2018-12-04T14:20:23.940Z,10.48
2018-12-04T14:22:51.261Z,10.51
2018-12-04T14:25:18.629Z,10.57
2018-12-04T14:27:49.217Z,10.61
2018-12-04T14:30:15.042Z,10.63
2018-12-04T14:32:42.348Z,10.67
2018-12-04T14:35:09.455Z,10.67
2018-12-04T14:37:37.308Z,10.63
2018-12-04T14:40:05.214Z,10.73
2018-12-04T14:42:32.480Z,10.74
2018-12-04T14:44:59.787Z,10.63
2018-12-04T14:47:27.154Z,10.56
2018-12-04T14:49:54.376Z,10.48
2018-12-04T14:52:21.668Z,10.47
2018-12-04T14:54:49.211Z,10.56
2018-12-04T14:57:16.560Z,10.57
2018-12-04T14:59:44.309Z,10.51
2018-12-04T15:02:11.468Z,10.53
2018-12-04T15:04:39.107Z,10.58
2018-12-04T15:07:07.700Z,10.52
2018-12-04T15:09:35.307Z,10.46
2018-12-04T15:12:02.704Z,10.37
2018-12-04T15:14:30.541Z,10.38
2018-12-04T15:16:57.974Z,10.36
2018-12-04T15:19:25.327Z,10.37
2018-12-04T15:21:53.504Z,10.34
2018-12-04T15:24:20.660Z,10.29
2018-12-04T15:26:47.964Z,10.27
2018-12-04T15:29:15.133Z,10.21
2018-12-04T15:31:42.344Z,10.08
2018-12-04T15:34:09.527Z,10.10
2018-12-04T15:36:36.875Z,10.12
2018-12-04T15:39:07.173Z,10.07
2018-12-04T15:41:34.378Z,9.98
2018-12-04T15:44:01.796Z,9.96
2018-12-04T15:46:28.943Z,9.88
2018-12-04T15:48:56.804Z,9.85
2018-12-04T15:51:23.950Z,9.85
2018-12-04T15:53:51.212Z,9.86
2018-12-04T15:56:18.668Z,9.79
2018-12-04T15:58:45.808Z,9.81
2018-12-04T16:01:13.499Z,9.76
2018-12-04T16:03:40.648Z,9.79
2018-12-04T16:06:07.952Z,9.77
2018-12-04T16:08:35.137Z,9.69
2018-12-04T16:11:02.241Z,9.71
2018-12-04T16:13:29.400Z,9.73
2018-12-04T16:15:56.726Z,9.69
2018-12-04T16:18:23.933Z,9.72
2018-12-04T16:20:51.088Z,9.72
2018-12-04T16:23:18.891Z,9.72
2018-12-04T16:25:46.057Z,8.79
2018-12-04T16:28:13.266Z,9.74
2018-12-04T16:30:40.586Z,9.76
2018-12-04T16:33:07.912Z,9.72
2018-12-04T16:35:35.036Z,9.66
2018-12-04T16:38:02.210Z,9.62
2018-12-04T16:40:29.496Z,9.66
2018-12-04T16:42:56.640Z,9.59
2018-12-04T16:45:23.765Z,9.55
2018-12-04T16:47:50.893Z,9.54
2018-12-04T16:50:18.078Z,9.50
2018-12-04T16:52:45.357Z,9.49
2018-12-04T16:55:12.529Z,9.41
2018-12-04T16:57:41.479Z,9.37
2018-12-04T17:00:10.590Z,9.30
2018-12-04T17:02:37.781Z,9.25
2018-12-04T17:05:06.155Z,9.22
2018-12-04T17:07:33.504Z,9.25
2018-12-04T17:10:00.782Z,9.13
2018-12-04T17:12:28.634Z,9.09
2018-12-04T17:14:55.853Z,9.06
2018-12-04T17:17:22.996Z,9.10
2018-12-04T17:19:50.559Z,9.02
2018-12-04T17:22:17.745Z,8.97
2018-12-04T17:24:44.885Z,8.87
2018-12-04T17:27:12.157Z,8.86
2018-12-04T17:29:39.324Z,8.75
2018-12-04T17:32:06.693Z,8.69
2018-12-04T17:34:33.874Z,8.64
2018-12-04T17:37:01.092Z,8.59
2018-12-04T17:39:28.257Z,8.59
2018-12-04T17:41:55.324Z,8.61
2018-12-04T17:44:23.586Z,8.57
2018-12-04T17:46:50.752Z,8.49
2018-12-04T17:49:17.925Z,8.42
2018-12-04T17:51:45.169Z,8.35
2018-12-04T17:54:12.302Z,8.33
2018-12-04T17:56:39.421Z,8.31
2018-12-04T17:59:06.717Z,8.27
2018-12-04T18:01:34.023Z,8.21
2018-12-04T18:04:01.167Z,8.15
2018-12-04T18:06:29.217Z,8.11
2018-12-04T18:08:56.452Z,8.03
2018-12-04T18:11:23.873Z,8.01
2018-12-04T18:13:51.024Z,7.95
2018-12-04T18:16:18.864Z,7.92
2018-12-04T18:18:46.065Z,7.85
2018-12-04T18:21:13.140Z,7.88
2018-12-04T18:23:41.272Z,7.88
2018-12-04T18:26:08.475Z,7.88
2018-12-04T18:28:35.731Z,7.86
2018-12-04T18:31:02.905Z,7.82
2018-12-04T18:33:30.144Z,7.75
2018-12-04T18:35:57.237Z,7.80
2018-12-04T18:38:24.536Z,7.78
2018-12-04T18:40:51.608Z,7.74
2018-12-04T18:43:18.780Z,7.64
2018-12-04T18:45:46.022Z,7.64
2018-12-04T18:48:13.134Z,7.67
2018-12-04T18:50:40.278Z,7.62
2018-12-04T18:53:07.505Z,7.58
2018-12-04T18:55:35.133Z,7.62
2018-12-04T18:58:02.291Z,7.60
2018-12-04T19:00:29.589Z,7.54
2018-12-04T19:02:57.092Z,7.52
2018-12-04T19:05:24.203Z,7.59
2018-12-04T19:07:51.477Z,7.58
2018-12-04T19:10:18.588Z,7.48
2018-12-04T19:12:45.721Z,7.35
2018-12-04T19:15:13.384Z,7.38
2018-12-04T19:17:40.550Z,7.37
2018-12-04T19:20:08.170Z,7.31
2018-12-04T19:22:35.284Z,7.19
2018-12-04T19:25:02.511Z,7.25
2018-12-04T19:27:30.573Z,7.15
2018-12-04T19:29:58.305Z,7.10
2018-12-04T19:32:25.490Z,7.15
2018-12-04T19:34:52.662Z,7.08
2018-12-04T19:37:19.762Z,7.09
2018-12-04T19:39:46.861Z,7.05
2018-12-04T19:42:14.064Z,7.03
2018-12-04T19:44:41.800Z,7.02
2018-12-04T19:47:09.188Z,6.98
2018-12-04T19:49:36.306Z,6.99
2018-12-04T19:52:03.401Z,6.92
2018-12-04T19:54:30.658Z,6.90
2018-12-04T19:56:57.810Z,6.88
2018-12-04T19:59:25.055Z,6.86
2018-12-04T20:01:52.789Z,6.81
2018-12-04T20:04:19.983Z,6.83
2018-12-04T20:06:47.234Z,6.82
2018-12-04T20:09:15.152Z,6.89
2018-12-04T20:11:42.274Z,6.74
2018-12-04T20:14:09.389Z,6.65
2018-12-04T20:16:36.564Z,6.60
2018-12-04T20:19:03.681Z,6.64
2018-12-04T20:21:30.951Z,6.71
2018-12-04T20:23:58.254Z,6.58
2018-12-04T20:26:25.345Z,6.59
2018-12-04T20:28:53.339Z,6.52
2018-12-04T20:31:20.450Z,6.47
2018-12-04T20:33:48.184Z,6.50
2018-12-04T20:36:15.265Z,6.44
2018-12-04T20:38:42.547Z,6.38
2018-12-04T20:41:09.759Z,6.35
2018-12-04T20:43:36.900Z,6.31
2018-12-04T20:46:06.038Z,6.29
2018-12-04T20:48:34.087Z,6.28
2018-12-04T20:51:01.916Z,6.18
2018-12-04T20:53:28.977Z,6.18
2018-12-04T20:55:56.126Z,6.07
2018-12-04T20:58:23.286Z,6.08
2018-12-04T21:00:50.385Z,6.02
2018-12-04T21:03:17.499Z,5.97
2018-12-04T21:05:44.628Z,6.01
2018-12-04T21:08:11.775Z,5.98
2018-12-04T21:10:39.064Z,6.04
2018-12-04T21:13:06.190Z,6.05
2018-12-04T21:15:33.305Z,5.96
2018-12-04T21:18:00.480Z,5.88
2018-12-04T21:20:27.570Z,5.91
2018-12-04T21:22:54.720Z,5.83
2018-12-04T21:25:21.798Z,5.82
2018-12-04T21:27:55.445Z,5.80
2018-12-04T21:30:28.348Z,5.79
2018-12-04T21:33:01.106Z,5.87
2018-12-04T21:35:33.986Z,5.89
2018-12-04T21:38:06.759Z,5.77
2018-12-04T21:40:39.721Z,5.77
2018-12-04T21:43:12.554Z,5.60
2018-12-04T21:45:45.379Z,5.59
2018-12-04T21:48:13.760Z,5.63
2018-12-04T21:50:40.831Z,5.68
2018-12-04T21:53:07.984Z,5.63
2018-12-04T21:55:35.133Z,5.69
2018-12-04T21:58:02.949Z,5.77
2018-12-04T22:00:30.021Z,5.76
2018-12-04T22:02:57.172Z,5.78
2018-12-04T22:05:24.298Z,5.75
2018-12-04T22:07:51.352Z,5.48
2018-12-04T22:10:18.419Z,5.51
2018-12-04T22:12:45.620Z,5.61
2018-12-04T22:15:12.745Z,5.65
2018-12-04T22:17:39.844Z,5.65
2018-12-04T22:20:07.111Z,5.57
2018-12-04T22:22:34.739Z,5.60
2018-12-04T22:25:02.090Z,5.60
2018-12-04T22:27:29.285Z,5.53
2018-12-04T22:29:57.556Z,5.60
2018-12-04T22:32:24.978Z,5.61
2018-12-04T22:34:52.093Z,5.58
2018-12-04T22:37:20.200Z,5.65
2018-12-04T22:39:47.353Z,5.76
2018-12-04T22:42:14.451Z,5.79
2018-12-04T22:44:41.633Z,5.71
2018-12-04T22:47:08.809Z,5.56
2018-12-04T22:49:35.902Z,5.56
2018-12-04T22:52:03.918Z,5.51
2018-12-04T22:54:37.833Z,5.50
2018-12-04T22:57:04.992Z,5.48
2018-12-04T22:59:32.128Z,5.57
2018-12-04T23:01:59.281Z,5.55
2018-12-04T23:04:26.432Z,5.51
2018-12-04T23:06:53.905Z,5.35
2018-12-04T23:09:21.265Z,5.35
2018-12-04T23:11:48.470Z,5.41
2018-12-04T23:14:15.604Z,5.44
2018-12-04T23:16:43.429Z,5.53
2018-12-04T23:19:10.789Z,5.54
2018-12-04T23:21:37.941Z,5.61
2018-12-04T23:26:43.172Z,5.60
2018-12-04T23:29:13.825Z,5.68
2018-12-04T23:31:41.058Z,5.77
2018-12-04T23:34:08.180Z,5.82
2018-12-04T23:36:35.421Z,5.79
2018-12-04T23:39:04.310Z,5.88
2018-12-04T23:41:31.475Z,5.92
2018-12-04T23:43:58.617Z,5.98
2018-12-04T23:46:25.812Z,5.97
2018-12-04T23:48:53.099Z,5.94
2018-12-04T23:51:20.589Z,5.98
2018-12-04T23:53:47.751Z,5.94
2018-12-04T23:56:14.827Z,5.86
2018-12-04T23:58:41.965Z,1.79
